Time;durP1;ratioP1;P1;durP2;ratioP2;P2;SDS_P1;SDS_P2;PMS_P1;PMS_P2;Temp;Humidity;BMP_temperature;BMP_pressure;BME280_temperature;BME280_humidity;BME280_pressure;Samples;Min_cycle;Max_cycle;Signal;HPM_P1;HPM_P2
2023/07/30 00:01:11;;;;;;;21.98;11.05;;;;;;;15.06;97.75;100816.22;5041602;28;20029;-67
2023/07/30 00:03:36;;;;;;;19.65;11.18;;;;;;;15.11;97.37;100817.97;5035869;28;20056;-67
2023/07/30 00:06:01;;;;;;;17.30;11.10;;;;;;;15.06;97.48;100818.19;5034004;28;20029;-67
2023/07/30 00:08:27;;;;;;;20.02;11.10;;;;;;;15.04;97.35;100821.28;5042457;28;20025;-67
2023/07/30 00:10:52;;;;;;;18.40;11.20;;;;;;;15.04;97.59;100821.28;5053822;28;20100;-67
2023/07/30 00:13:18;;;;;;;18.23;10.88;;;;;;;15.03;96.80;100819.66;5045695;28;20032;-66
2023/07/30 00:15:46;;;;;;;18.25;10.90;;;;;;;15.03;97.48;100821.66;5047430;28;20029;-67
2023/07/30 00:18:11;;;;;;;18.25;11.00;;;;;;;14.97;97.70;100815.44;5034022;28;20029;-67
2023/07/30 00:20:36;;;;;;;18.52;11.15;;;;;;;14.94;97.63;100818.91;5033694;28;20036;-67
2023/07/30 00:23:02;;;;;;;19.98;11.32;;;;;;;14.91;98.18;100812.03;5038765;28;20041;-67
2023/07/30 00:25:27;;;;;;;19.83;10.93;;;;;;;14.86;98.32;100814.19;5043622;28;20029;-68
2023/07/30 00:27:53;;;;;;;18.40;11.25;;;;;;;14.80;98.79;100819.13;5037634;28;20025;-68
2023/07/30 00:30:18;;;;;;;21.17;11.20;;;;;;;14.73;98.69;100810.50;5046648;28;20080;-67
2023/07/30 00:32:43;;;;;;;20.50;11.10;;;;;;;14.74;99.18;100823.28;5051395;28;20466;-67
2023/07/30 00:35:10;;;;;;;18.75;11.07;;;;;;;14.73;99.26;100822.47;5039150;28;20056;-68
2023/07/30 00:37:35;;;;;;;18.52;10.73;;;;;;;14.72;99.94;100818.06;5043877;28;20045;-67
2023/07/30 00:40:02;;;;;;;18.73;10.85;;;;;;;14.72;99.82;100820.84;5042122;28;20366;-67
2023/07/30 00:42:28;;;;;;;20.52;11.52;;;;;;;14.73;99.60;100819.69;5044105;28;20029;-67
2023/07/30 00:44:53;;;;;;;20.92;10.98;;;;;;;14.73;100.00;100819.69;5037854;28;20032;-67
2023/07/30 00:47:19;;;;;;;19.83;11.23;;;;;;;14.69;99.74;100815.13;5051168;28;20041;-67
2023/07/30 00:49:44;;;;;;;19.52;10.98;;;;;;;14.73;100.00;100824.44;5048770;28;20112;-68
2023/07/30 00:52:10;;;;;;;22.33;11.50;;;;;;;14.74;99.99;100826.88;5051266;28;20037;-68
2023/07/30 00:54:36;;;;;;;18.63;10.80;;;;;;;14.75;100.00;100822.94;5051674;28;20107;-68
2023/07/30 00:57:02;;;;;;;21.05;11.52;;;;;;;14.74;100.00;100829.66;5046474;28;20022;-67
2023/07/30 00:59:27;;;;;;;20.23;11.48;;;;;;;14.72;100.00;100831.13;5037842;28;20040;-68
2023/07/30 01:01:53;;;;;;;20.27;11.88;;;;;;;14.67;100.00;100837.72;5053154;28;20051;-68
2023/07/30 01:04:19;;;;;;;18.67;11.60;;;;;;;14.61;100.00;100834.25;5034035;28;20056;-67
2023/07/30 01:06:44;;;;;;;18.33;11.45;;;;;;;14.60;100.00;100831.81;5052917;28;20060;-68
2023/07/30 01:09:10;;;;;;;20.95;11.60;;;;;;;14.57;100.00;100844.44;5038521;28;20203;-68
2023/07/30 01:11:37;;;;;;;22.58;11.60;;;;;;;14.51;100.00;100846.59;5044337;28;20041;-68
2023/07/30 01:14:05;;;;;;;20.40;11.27;;;;;;;14.50;100.00;100844.13;5051420;28;20021;-68
2023/07/30 01:16:31;;;;;;;20.77;11.50;;;;;;;14.44;100.00;100849.09;5041276;28;20037;-68
2023/07/30 01:18:58;;;;;;;19.48;11.35;;;;;;;14.40;100.00;100848.09;5034413;28;20044;-68
2023/07/30 01:21:24;;;;;;;19.63;11.57;;;;;;;14.38;100.00;100855.16;5044801;28;20065;-68
2023/07/30 01:23:49;;;;;;;20.13;11.55;;;;;;;14.39;100.00;100854.81;5043990;28;20079;-68
2023/07/30 01:26:24;;;;;;;19.00;11.40;;;;;;;14.46;100.00;100854.31;5036919;28;20125;-69
2023/07/30 01:28:54;;;;;;;20.40;11.23;;;;;;;14.33;100.00;100843.03;5036576;28;20048;-68
2023/07/30 01:31:21;;;;;;;18.38;11.00;;;;;;;14.38;100.00;100855.97;5034221;28;20430;-68
2023/07/30 01:33:52;;;;;;;19.30;11.05;;;;;;;14.32;100.00;100857.28;5047765;28;20128;-68
2023/07/30 01:36:19;;;;;;;20.55;11.65;;;;;;;14.31;100.00;100859.25;5036892;28;20063;-68
2023/07/30 01:38:45;;;;;;;18.75;11.50;;;;;;;14.29;100.00;100864.34;5045055;28;20474;-69
2023/07/30 01:41:10;;;;;;;21.02;11.85;;;;;;;14.31;100.00;100864.00;5044517;28;20040;-68
2023/07/30 01:43:35;;;;;;;20.65;11.40;;;;;;;14.28;100.00;100859.09;5051178;28;20024;-68
2023/07/30 01:46:01;;;;;;;19.77;11.25;;;;;;;14.29;100.00;100863.50;5032221;28;20197;-68
2023/07/30 01:48:26;;;;;;;21.30;11.43;;;;;;;14.32;100.00;100866.44;5035450;28;20062;-68
2023/07/30 01:50:52;;;;;;;22.25;11.27;;;;;;;14.34;100.00;100863.34;5046418;28;20099;-68
2023/07/30 01:53:17;;;;;;;21.48;11.68;;;;;;;14.35;100.00;100867.78;5051770;28;20025;-68
2023/07/30 01:55:43;;;;;;;20.70;11.60;;;;;;;14.35;100.00;100873.34;5040704;28;20033;-68
2023/07/30 01:58:09;;;;;;;21.92;11.32;;;;;;;14.39;100.00;100874.28;5031958;28;20104;-68
2023/07/30 02:00:35;;;;;;;22.98;11.48;;;;;;;14.37;100.00;100870.22;5039502;28;20031;-68
2023/07/30 02:03:00;;;;;;;20.27;12.23;;;;;;;14.37;100.00;100865.44;5048776;28;20559;-68
2023/07/30 02:05:26;;;;;;;21.88;11.27;;;;;;;14.39;100.00;100865.16;5046818;28;20071;-69
2023/07/30 02:07:51;;;;;;;20.83;11.50;;;;;;;14.37;100.00;100873.81;5049754;28;20086;-66
2023/07/30 02:10:17;;;;;;;19.60;11.25;;;;;;;14.37;100.00;100875.78;5039451;28;20099;-69
2023/07/30 02:12:42;;;;;;;20.80;11.43;;;;;;;14.36;100.00;100869.38;5042977;28;20082;-66
2023/07/30 02:15:08;;;;;;;22.30;11.98;;;;;;;14.39;100.00;100877.09;5042142;28;20488;-66
2023/07/30 02:17:33;;;;;;;20.35;11.52;;;;;;;14.38;100.00;100872.66;5039401;28;20048;-69
2023/07/30 02:19:58;;;;;;;22.75;11.70;;;;;;;14.37;100.00;100871.03;5040476;28;20075;-70
2023/07/30 02:22:24;;;;;;;20.83;11.80;;;;;;;14.38;100.00;100867.09;5040560;28;20087;-70
2023/07/30 02:24:49;;;;;;;18.83;11.40;;;;;;;14.38;100.00;100857.94;5045216;28;20052;-69
2023/07/30 02:27:15;;;;;;;21.60;11.60;;;;;;;14.43;100.00;100863.31;5032397;28;20099;-69
2023/07/30 02:29:40;;;;;;;21.30;12.10;;;;;;;14.45;100.00;100863.81;5038520;28;20103;-67
2023/07/30 02:32:06;;;;;;;20.40;11.88;;;;;;;14.45;100.00;100867.41;5033096;28;20072;-67
2023/07/30 02:34:31;;;;;;;21.88;12.10;;;;;;;14.47;100.00;100867.09;5037606;28;20032;-67
2023/07/30 02:36:57;;;;;;;23.33;12.10;;;;;;;14.47;100.00;100858.72;5051161;28;20020;-67
2023/07/30 02:39:22;;;;;;;22.00;12.40;;;;;;;14.46;100.00;100857.09;5050275;28;20109;-67
2023/07/30 02:41:48;;;;;;;23.70;12.45;;;;;;;14.47;100.00;100850.38;5035310;28;20037;-67
2023/07/30 02:44:13;;;;;;;24.15;12.70;;;;;;;14.47;100.00;100848.41;5031399;28;20124;-67
2023/07/30 02:46:39;;;;;;;22.58;12.27;;;;;;;14.48;100.00;100846.44;5045465;28;20043;-67
2023/07/30 02:49:04;;;;;;;22.15;12.32;;;;;;;14.48;100.00;100847.25;5044529;28;20032;-66
2023/07/30 02:51:29;;;;;;;22.52;12.45;;;;;;;14.44;100.00;100849.09;5041852;28;20443;-67
2023/07/30 02:54:01;;;;;;;23.67;12.68;;;;;;;14.49;100.00;100839.75;5032467;28;20030;-68
2023/07/30 02:56:26;;;;;;;23.92;13.13;;;;;;;14.50;100.00;100853.31;5031328;28;20466;-68
2023/07/30 02:58:51;;;;;;;21.20;12.65;;;;;;;14.53;100.00;100849.03;5035632;28;20108;-68
2023/07/30 03:01:17;;;;;;;26.23;14.00;;;;;;;14.56;100.00;100848.38;5049736;28;20388;-69
2023/07/30 03:03:42;;;;;;;22.80;14.02;;;;;;;14.55;100.00;100845.94;5043819;28;20397;-68
2023/07/30 03:06:07;;;;;;;23.08;14.13;;;;;;;14.55;100.00;100855.09;5035577;28;20107;-69
2023/07/30 03:08:33;;;;;;;23.80;14.25;;;;;;;14.58;100.00;100853.59;5044836;28;20029;-68
2023/07/30 03:10:59;;;;;;;22.65;13.73;;;;;;;14.61;100.00;100861.31;5046609;28;20388;-67
2023/07/30 03:13:26;;;;;;;25.75;14.02;;;;;;;14.61;100.00;100858.50;5033532;28;20025;-68
2023/07/30 03:15:51;;;;;;;24.73;14.90;;;;;;;14.65;100.00;100863.09;5030804;28;20117;-67
2023/07/30 03:18:16;;;;;;;27.52;14.73;;;;;;;14.65;100.00;100862.25;5030472;28;20474;-68
2023/07/30 03:20:42;;;;;;;24.70;14.63;;;;;;;14.66;100.00;100859.19;5038691;28;20030;-66
2023/07/30 03:23:07;;;;;;;25.00;14.40;;;;;;;14.68;100.00;100863.59;5051493;28;20061;-67
2023/07/30 03:25:33;;;;;;;26.73;15.07;;;;;;;14.69;100.00;100856.88;5047035;28;20029;-67
2023/07/30 03:27:58;;;;;;;23.73;15.45;;;;;;;14.74;100.00;100862.25;5040187;28;20519;-67
2023/07/30 03:30:23;;;;;;;25.63;15.00;;;;;;;14.71;100.00;100866.53;5048564;28;20099;-68
2023/07/30 03:32:49;;;;;;;25.38;15.13;;;;;;;14.74;100.00;100865.84;5034713;28;20116;-68
2023/07/30 03:35:14;;;;;;;25.80;15.35;;;;;;;14.72;100.00;100865.38;5049559;28;20057;-68
2023/07/30 03:37:39;;;;;;;21.95;14.18;;;;;;;14.72;100.00;100862.59;5034881;28;20512;-68
2023/07/30 03:40:05;;;;;;;24.63;14.90;;;;;;;14.70;100.00;100862.13;5040087;28;20073;-68
2023/07/30 03:42:31;;;;;;;25.40;14.40;;;;;;;14.70;100.00;100869.63;5054408;28;20029;-68
2023/07/30 03:44:56;;;;;;;24.77;14.48;;;;;;;14.63;100.00;100870.94;5044743;28;20032;-68
2023/07/30 03:47:21;;;;;;;23.33;14.45;;;;;;;14.63;100.00;100870.16;5054441;28;20036;-68
2023/07/30 03:49:46;;;;;;;23.08;13.70;;;;;;;14.61;100.00;100869.66;5038488;28;20060;-67
2023/07/30 03:52:12;;;;;;;24.35;14.38;;;;;;;14.58;100.00;100879.50;5044772;28;20032;-67
2023/07/30 03:54:37;;;;;;;23.90;14.38;;;;;;;14.56;100.00;100878.16;5045732;28;20040;-67
2023/07/30 03:57:03;;;;;;;24.77;14.73;;;;;;;14.55;100.00;100879.34;5045974;28;20022;-67
2023/07/30 03:59:28;;;;;;;23.67;14.50;;;;;;;14.55;100.00;100879.34;5042703;28;20112;-67
2023/07/30 04:01:54;;;;;;;26.40;14.55;;;;;;;14.56;100.00;100876.22;5042515;28;20030;-67
2023/07/30 04:04:19;;;;;;;21.88;14.32;;;;;;;14.59;100.00;100885.88;5034566;28;20056;-67
2023/07/30 04:06:44;;;;;;;27.98;14.85;;;;;;;14.58;100.00;100881.44;5033872;28;20029;-67
2023/07/30 04:09:10;;;;;;;23.48;14.32;;;;;;;14.58;100.00;100879.50;5036971;28;20510;-68
2023/07/30 04:11:35;;;;;;;26.75;14.98;;;;;;;14.59;100.00;100886.69;5047587;28;20362;-67
2023/07/30 04:14:00;;;;;;;24.70;14.07;;;;;;;14.60;100.00;100881.94;5044219;28;20120;-67
2023/07/30 04:16:25;;;;;;;27.15;14.52;;;;;;;14.61;100.00;100881.59;5042609;28;20034;-67
2023/07/30 04:18:51;;;;;;;25.27;13.57;;;;;;;14.62;100.00;100883.22;5033964;28;20057;-67
2023/07/30 04:21:16;;;;;;;26.35;13.27;;;;;;;14.64;100.00;100888.47;5044975;28;20025;-66
2023/07/30 04:23:41;;;;;;;22.42;13.38;;;;;;;14.60;100.00;100882.75;5043646;28;20024;-66
2023/07/30 04:26:07;;;;;;;25.08;13.40;;;;;;;14.59;100.00;100892.28;5033828;28;20025;-68
2023/07/30 04:28:32;;;;;;;23.35;13.10;;;;;;;14.58;100.00;100889.78;5032712;28;20034;-67
2023/07/30 04:30:58;;;;;;;24.98;13.23;;;;;;;14.60;100.00;100895.84;5053302;28;20393;-68
2023/07/30 04:33:23;;;;;;;25.08;12.90;;;;;;;14.66;100.00;100894.50;5053007;28;20099;-68
2023/07/30 04:35:49;;;;;;;27.67;13.43;;;;;;;14.70;100.00;100898.31;5053802;28;20025;-68
2023/07/30 04:38:14;;;;;;;23.52;13.23;;;;;;;14.72;100.00;100895.19;5046348;28;20465;-67
2023/07/30 04:40:40;;;;;;;25.60;13.02;;;;;;;14.74;100.00;100890.09;5053715;28;20044;-67
2023/07/30 04:43:05;;;;;;;23.30;13.30;;;;;;;14.75;100.00;100892.53;5045645;28;20114;-67
2023/07/30 04:45:30;;;;;;;25.30;13.38;;;;;;;14.80;100.00;100903.53;5033882;28;20079;-67
2023/07/30 04:47:56;;;;;;;25.00;13.57;;;;;;;14.80;100.00;100899.91;5036512;28;20068;-67
2023/07/30 04:50:21;;;;;;;26.48;13.32;;;;;;;14.85;100.00;100896.13;5049024;28;20450;-68
2023/07/30 04:52:47;;;;;;;25.30;13.95;;;;;;;14.84;100.00;100898.09;5038833;28;20059;-67
2023/07/30 04:55:12;;;;;;;27.80;14.32;;;;;;;14.86;100.00;100897.75;5043254;28;20504;-66
2023/07/30 04:57:37;;;;;;;26.58;15.23;;;;;;;14.90;100.00;100887.59;5041069;28;20033;-67
2023/07/30 05:00:03;;;;;;;24.13;14.32;;;;;;;14.94;100.00;100888.53;5045477;28;20480;-67
2023/07/30 05:02:29;;;;;;;25.42;15.07;;;;;;;14.97;100.00;100896.22;5043170;28;20043;-66
2023/07/30 05:04:55;;;;;;;26.10;14.50;;;;;;;15.04;100.00;100895.72;5036196;28;20041;-66
2023/07/30 05:07:20;;;;;;;26.65;14.90;;;;;;;15.11;100.00;100898.78;5036288;28;20078;-67
2023/07/30 05:09:45;;;;;;;26.55;14.07;;;;;;;15.19;100.00;100908.25;5036458;28;20109;-67
2023/07/30 05:12:11;;;;;;;27.83;14.75;;;;;;;15.20;100.00;100901.53;5032833;28;20036;-66
2023/07/30 05:14:36;;;;;;;25.60;15.13;;;;;;;15.23;100.00;100910.03;5033376;28;20045;-66
2023/07/30 05:17:02;;;;;;;24.40;14.82;;;;;;;15.24;100.00;100913.63;5050897;28;20029;-67
2023/07/30 05:19:28;;;;;;;28.02;14.30;;;;;;;15.20;100.00;100921.03;5043974;28;20036;-67
2023/07/30 05:21:53;;;;;;;26.13;14.30;;;;;;;15.20;100.00;100921.84;5044917;28;20029;-67
2023/07/30 05:24:19;;;;;;;25.92;15.00;;;;;;;15.19;100.00;100927.75;5041990;28;20063;-67
2023/07/30 05:26:44;;;;;;;28.55;14.63;;;;;;;15.21;100.00;100926.28;5032474;28;20342;-67
2023/07/30 05:29:10;;;;;;;27.85;14.38;;;;;;;15.21;100.00;100928.25;5032667;28;20069;-67
2023/07/30 05:31:35;;;;;;;26.17;14.05;;;;;;;15.25;100.00;100930.03;5040499;28;20032;-67
2023/07/30 05:34:00;;;;;;;24.27;14.02;;;;;;;15.24;100.00;100933.13;5038043;28;20052;-68
2023/07/30 05:36:26;;;;;;;25.90;13.88;;;;;;;15.26;100.00;100916.91;5050480;28;20024;-68
2023/07/30 05:38:51;;;;;;;26.02;13.85;;;;;;;15.30;100.00;100920.66;5041622;28;20052;-68
2023/07/30 05:41:16;;;;;;;27.95;14.50;;;;;;;15.30;100.00;100920.66;5034911;28;20026;-68
2023/07/30 05:43:42;;;;;;;26.83;14.15;;;;;;;15.32;100.00;100915.53;5036741;28;20134;-68
2023/07/30 05:46:08;;;;;;;27.50;14.68;;;;;;;15.37;100.00;100922.91;5032118;28;20041;-68
2023/07/30 05:48:33;;;;;;;29.05;14.98;;;;;;;15.38;100.00;100917.00;5039725;28;20493;-67
2023/07/30 05:50:59;;;;;;;28.65;15.43;;;;;;;15.40;100.00;100917.47;5047021;28;20021;-68
2023/07/30 05:53:24;;;;;;;27.63;14.88;;;;;;;15.48;100.00;100918.56;5045177;28;20045;-67
2023/07/30 05:55:49;;;;;;;29.13;14.95;;;;;;;15.55;100.00;100921.63;5046086;28;20108;-67
2023/07/30 05:58:15;;;;;;;25.65;14.50;;;;;;;15.58;100.00;100918.19;5044852;28;20041;-68
2023/07/30 06:00:40;;;;;;;29.10;15.25;;;;;;;15.58;100.00;100920.16;5037490;28;20474;-68
2023/07/30 06:03:06;;;;;;;27.88;15.50;;;;;;;15.57;100.00;100924.91;5031989;28;20025;-68
2023/07/30 06:05:31;;;;;;;25.00;15.55;;;;;;;15.60;100.00;100915.88;5051351;28;20029;-68
2023/07/30 06:07:57;;;;;;;32.50;16.33;;;;;;;15.65;100.00;100923.22;5044645;28;20421;-68
2023/07/30 06:10:22;;;;;;;28.55;15.23;;;;;;;15.69;100.00;100924.16;5033817;28;20033;-68
2023/07/30 06:12:47;;;;;;;28.55;15.40;;;;;;;15.71;100.00;100921.03;5031585;28;20040;-67
2023/07/30 06:15:13;;;;;;;27.98;15.55;;;;;;;15.73;100.00;100927.06;5041722;28;20040;-67
2023/07/30 06:17:38;;;;;;;30.33;15.45;;;;;;;15.85;100.00;100924.41;5051200;28;20112;-67
2023/07/30 06:20:05;;;;;;;26.15;15.20;;;;;;;15.96;100.00;100937.94;5049551;28;20035;-67
2023/07/30 06:22:30;;;;;;;26.67;15.43;;;;;;;16.01;100.00;100929.38;5046532;28;20031;-67
2023/07/30 06:24:55;;;;;;;26.52;14.75;;;;;;;16.13;100.00;100934.19;5034747;28;20025;-67
2023/07/30 06:27:21;;;;;;;26.48;15.57;;;;;;;16.11;100.00;100914.19;5051283;28;20029;-67
2023/07/30 06:29:47;;;;;;;24.73;14.55;;;;;;;16.14;100.00;100913.50;5033010;28;20049;-67
2023/07/30 06:32:12;;;;;;;28.20;14.40;;;;;;;16.21;100.00;100922.94;5037454;28;20025;-67
2023/07/30 06:34:37;;;;;;;26.33;14.05;;;;;;;16.28;100.00;100924.38;5038858;28;20025;-67
2023/07/30 06:37:03;;;;;;;30.88;14.95;;;;;;;16.32;100.00;100923.34;5049924;28;20025;-67
2023/07/30 06:39:28;;;;;;;26.88;15.20;;;;;;;16.37;100.00;100931.50;5036789;28;20112;-68
2023/07/30 06:41:54;;;;;;;26.30;15.32;;;;;;;16.36;100.00;100927.06;5047367;28;20473;-68
2023/07/30 06:44:19;;;;;;;26.75;14.82;;;;;;;16.43;100.00;100925.72;5040733;28;20112;-65
2023/07/30 06:46:44;;;;;;;27.25;14.50;;;;;;;16.45;100.00;100927.00;5040247;28;20037;-67
2023/07/30 06:49:10;;;;;;;27.95;14.27;;;;;;;16.50;100.00;100923.16;5036042;28;20514;-67
2023/07/30 06:51:35;;;;;;;31.55;15.27;;;;;;;16.48;100.00;100929.06;5037493;28;20039;-67
2023/07/30 06:54:00;;;;;;;30.80;14.52;;;;;;;16.53;100.00;100919.69;5044271;28;20029;-67
2023/07/30 06:56:26;;;;;;;26.75;14.70;;;;;;;16.57;100.00;100928.19;5030935;28;20052;-67
2023/07/30 06:58:51;;;;;;;27.63;13.95;;;;;;;16.63;100.00;100929.59;5056082;28;20119;-68
2023/07/30 07:01:16;;;;;;;29.13;14.93;;;;;;;16.69;100.00;100923.44;5042091;28;20037;-67
2023/07/30 07:03:41;;;;;;;27.13;13.98;;;;;;;16.75;100.00;100924.03;5049751;28;20079;-67
2023/07/30 07:06:07;;;;;;;26.38;13.68;;;;;;;16.77;100.00;100923.69;5046615;28;20056;-67
2023/07/30 07:08:32;;;;;;;24.15;14.38;;;;;;;16.84;100.00;100924.75;5034838;28;20124;-67
2023/07/30 07:10:57;;;;;;;27.38;14.00;;;;;;;16.85;100.00;100931.13;5047534;28;20029;-66
2023/07/30 07:13:23;;;;;;;29.55;14.00;;;;;;;16.90;100.00;100927.31;5031022;28;20033;-67
2023/07/30 07:15:48;;;;;;;25.30;13.55;;;;;;;16.97;100.00;100933.97;5040614;28;20033;-66
2023/07/30 07:18:13;;;;;;;23.95;13.18;;;;;;;17.04;100.00;100929.78;5034038;28;20345;-66
2023/07/30 07:20:39;;;;;;;26.70;13.27;;;;;;;17.18;100.00;100935.88;5031134;28;20033;-66
2023/07/30 07:23:05;;;;;;;29.55;12.77;;;;;;;17.35;100.00;100937.59;5036386;28;20060;-66
2023/07/30 07:25:30;;;;;;;23.63;12.57;;;;;;;17.53;99.64;100954.13;5028406;28;20099;-66
2023/07/30 07:27:56;;;;;;;27.35;12.98;;;;;;;17.60;98.04;100955.16;5031612;28;20437;-66
2023/07/30 07:30:21;;;;;;;26.00;12.48;;;;;;;17.53;98.64;100946.56;5039663;28;20118;-66
2023/07/30 07:32:50;;;;;;;26.25;13.20;;;;;;;17.49;98.27;100951.22;5037120;28;20483;-64
2023/07/30 07:35:18;;;;;;;26.25;13.05;;;;;;;17.52;98.31;100939.31;5036805;28;20115;-64
2023/07/30 07:37:44;;;;;;;24.92;13.20;;;;;;;17.58;97.79;100939.91;5031369;28;20029;-65
2023/07/30 07:40:09;;;;;;;25.05;12.38;;;;;;;17.65;98.04;100940.13;5030141;28;20049;-65
2023/07/30 07:42:35;;;;;;;27.35;12.77;;;;;;;17.76;98.08;100937.63;5042849;28;20041;-65
2023/07/30 07:45:00;;;;;;;25.65;12.57;;;;;;;17.84;96.02;100942.31;5049817;28;20033;-65
2023/07/30 07:47:26;;;;;;;25.83;12.05;;;;;;;17.83;96.53;100946.28;5040728;28;20116;-65
2023/07/30 07:49:51;;;;;;;25.50;12.75;;;;;;;17.86;96.96;100942.75;5049192;28;20033;-70
2023/07/30 07:52:19;;;;;;;26.48;12.18;;;;;;;17.81;96.04;100948.59;5030117;28;20029;-63
2023/07/30 07:54:44;;;;;;;24.75;12.75;;;;;;;17.82;95.45;100950.25;5029799;28;20088;-66
2023/07/30 07:57:09;;;;;;;20.55;11.50;;;;;;;17.84;95.65;100953.50;5030746;28;20029;-64
2023/07/30 07:59:35;;;;;;;26.02;12.43;;;;;;;17.88;95.75;100959.22;5049573;28;20036;-63
2023/07/30 08:02:00;;;;;;;23.20;11.45;;;;;;;17.88;94.74;100960.00;5048624;28;20362;-63
2023/07/30 08:04:25;;;;;;;23.83;11.90;;;;;;;17.88;94.65;100964.81;5030459;28;20030;-63
2023/07/30 08:06:50;;;;;;;24.55;12.00;;;;;;;17.96;94.39;100957.41;5032985;28;20040;-64
2023/07/30 08:09:16;;;;;;;28.42;12.40;;;;;;;18.05;93.35;100964.56;5041058;28;20039;-63
2023/07/30 08:11:41;;;;;;;25.48;11.93;;;;;;;18.12;93.93;100965.91;5045158;28;20127;-64
2023/07/30 08:14:06;;;;;;;25.58;12.00;;;;;;;18.18;93.07;100956.13;5040855;28;20029;-65
2023/07/30 08:16:32;;;;;;;24.75;11.38;;;;;;;18.27;92.32;100961.56;5043874;28;20533;-64
2023/07/30 08:18:57;;;;;;;25.58;11.43;;;;;;;18.30;91.79;100963.66;5041040;28;20029;-64
2023/07/30 08:21:22;;;;;;;23.17;11.90;;;;;;;18.22;91.24;100955.06;5042653;28;20037;-65
2023/07/30 08:23:48;;;;;;;23.50;11.40;;;;;;;18.18;91.82;100962.53;5040002;28;20033;-65
2023/07/30 08:26:13;;;;;;;22.33;11.27;;;;;;;18.21;91.47;100973.03;5052851;28;20021;-65
2023/07/30 08:28:38;;;;;;;24.83;11.75;;;;;;;18.35;91.72;100977.38;5045642;28;20522;-65
2023/07/30 08:31:05;;;;;;;25.67;11.70;;;;;;;18.45;89.70;100965.66;5051017;28;20017;-65
2023/07/30 08:33:31;;;;;;;23.00;11.45;;;;;;;18.50;89.13;100973.84;5049719;28;20025;-64
2023/07/30 08:35:57;;;;;;;24.67;11.25;;;;;;;18.62;89.69;100970.16;5040518;28;20476;-64
2023/07/30 08:38:23;;;;;;;26.67;11.75;;;;;;;18.63;88.29;100968.97;5053414;28;20072;-65
2023/07/30 08:40:48;;;;;;;22.48;11.40;;;;;;;18.53;89.20;100961.09;5053933;28;20056;-65
2023/07/30 08:43:14;;;;;;;20.60;10.93;;;;;;;18.40;88.87;100965.94;5053643;28;20492;-65
2023/07/30 08:45:39;;;;;;;23.88;12.45;;;;;;;18.32;89.61;100976.13;5051652;28;20025;-66
2023/07/30 08:48:05;;;;;;;23.00;12.00;;;;;;;18.24;90.15;100968.69;5053440;28;20036;-65
2023/07/30 08:50:31;;;;;;;20.80;11.05;;;;;;;18.19;88.35;100977.31;5053225;28;20029;-65
2023/07/30 08:52:59;;;;;;;24.67;11.48;;;;;;;18.16;90.35;100978.06;5053336;28;20095;-65
2023/07/30 08:55:26;;;;;;;24.02;11.75;;;;;;;18.16;90.36;100978.84;5053299;28;20049;-65
2023/07/30 08:57:53;;;;;;;22.58;11.18;;;;;;;18.24;89.18;100986.28;5053104;28;20036;-65
2023/07/30 09:00:20;;;;;;;25.13;11.57;;;;;;;18.35;89.39;100982.97;5051761;28;20029;-65
2023/07/30 09:02:52;;;;;;;25.75;11.52;;;;;;;18.43;89.44;100986.81;5053187;28;20397;-65
2023/07/30 09:05:20;;;;;;;21.65;11.35;;;;;;;18.47;88.88;100966.13;5053158;28;20123;-65
2023/07/30 09:07:45;;;;;;;24.67;10.45;;;;;;;18.47;86.33;100977.34;5053158;28;20025;-65
2023/07/30 09:10:11;;;;;;;21.35;10.55;;;;;;;18.48;85.76;100978.97;5052843;28;20463;-65
2023/07/30 09:12:36;;;;;;;22.67;10.98;;;;;;;18.58;86.02;100979.63;5052940;28;20461;-65
2023/07/30 09:15:04;;;;;;;21.60;10.35;;;;;;;18.67;84.91;100985.88;5052846;28;20025;-66
2023/07/30 09:17:30;;;;;;;22.52;10.10;;;;;;;18.70;83.32;100982.38;5051468;28;20071;-66
2023/07/30 09:19:55;;;;;;;19.80;9.80;;;;;;;18.71;82.56;100981.19;5052703;28;20021;-66
2023/07/30 09:22:40;;;;;;;22.52;10.02;;;;;;;18.68;83.72;100988.31;5053003;28;20489;-63
2023/07/30 09:25:07;;;;;;;18.02;9.93;;;;;;;18.66;82.95;100982.25;5032951;28;20079;-65
2023/07/30 09:27:33;;;;;;;21.15;9.68;;;;;;;18.76;83.88;100980.94;5032675;28;20033;-65
2023/07/30 09:30:00;;;;;;;22.33;10.32;;;;;;;18.91;84.31;100981.28;5032797;28;20052;-65
2023/07/30 09:32:30;;;;;;;23.45;10.75;;;;;;;19.10;83.77;100977.81;5032615;28;20079;-65
2023/07/30 09:35:16;;;;;;;24.85;10.82;;;;;;;19.37;83.89;100981.69;5031247;28;20075;-66
2023/07/30 09:37:42;;;;;;;22.00;10.73;;;;;;;19.60;81.73;100975.41;5033769;28;20070;-65
2023/07/30 09:40:08;;;;;;;22.75;11.13;;;;;;;19.83;81.15;100974.75;5052164;28;20373;-65
2023/07/30 09:42:39;;;;;;;24.65;10.65;;;;;;;20.19;80.31;100973.53;5052660;28;20036;-65
2023/07/30 09:45:07;;;;;;;23.30;10.88;;;;;;;20.40;77.75;100966.72;5052066;28;20448;-65
2023/07/30 09:47:35;;;;;;;22.45;11.02;;;;;;;20.38;76.54;100978.34;5052212;28;20068;-65
2023/07/30 09:50:00;;;;;;;19.27;10.23;;;;;;;20.18;75.68;100966.28;5052458;28;20033;-65
2023/07/30 09:52:26;;;;;;;24.23;10.82;;;;;;;19.90;77.32;100955.28;5052081;28;20470;-65
2023/07/30 09:54:52;;;;;;;25.52;11.05;;;;;;;19.55;82.09;100958.88;5050843;28;20186;-65
2023/07/30 09:57:17;;;;;;;24.77;11.30;;;;;;;19.27;84.84;100963.44;5051867;28;20397;-65
2023/07/30 09:59:42;;;;;;;20.50;10.82;;;;;;;19.06;82.76;100974.94;5052025;28;20469;-65
2023/07/30 10:02:10;;;;;;;19.02;10.23;;;;;;;18.86;82.65;100991.63;5051930;28;20029;-65
2023/07/30 10:04:40;;;;;;;22.13;10.32;;;;;;;18.78;83.06;100983.34;5051987;28;20030;-65
2023/07/30 10:07:10;;;;;;;22.20;10.80;;;;;;;18.75;83.84;100986.91;5051817;28;20025;-66
2023/07/30 10:09:43;;;;;;;21.33;10.60;;;;;;;18.73;82.51;100983.63;5051795;28;20469;-65
2023/07/30 10:12:13;;;;;;;21.27;10.83;;;;;;;18.60;81.40;101000.50;5051973;28;20189;-65
2023/07/30 10:14:39;;;;;;;21.38;10.35;;;;;;;18.49;83.12;101010.59;5051443;28;20118;-65
2023/07/30 10:17:05;;;;;;;20.48;10.57;;;;;;;18.39;84.33;101015.53;5051511;28;20053;-65
2023/07/30 10:19:31;;;;;;;17.23;9.90;;;;;;;17.73;88.59;101022.31;5051835;28;20029;-65
2023/07/30 10:22:12;;;;;;;18.55;10.60;;;;;;;17.42;94.00;101020.91;5051763;28;20497;-65
2023/07/30 10:24:38;;;;;;;19.83;10.82;;;;;;;17.25;96.60;101014.38;5051788;28;20150;-65
2023/07/30 10:27:08;;;;;;;19.35;11.50;;;;;;;17.17;98.44;101018.09;5048387;28;20029;-65
2023/07/30 10:29:41;;;;;;;19.77;11.50;;;;;;;17.06;100.00;101028.09;5042564;28;20049;-65
2023/07/30 10:32:06;;;;;;;20.80;11.83;;;;;;;16.91;100.00;101029.53;5043760;28;20465;-65
2023/07/30 10:34:46;;;;;;;22.30;12.40;;;;;;;16.72;100.00;101039.25;5040175;28;20307;-64
2023/07/30 10:37:17;;;;;;;20.83;12.60;;;;;;;16.65;100.00;101027.81;5043690;28;20468;-64
2023/07/30 10:39:43;;;;;;;20.80;12.35;;;;;;;16.67;100.00;101031.09;5042752;28;20036;-64
2023/07/30 10:42:08;;;;;;;19.13;11.50;;;;;;;16.73;100.00;101031.66;5045451;28;20022;-65
2023/07/30 10:44:34;;;;;;;20.35;11.32;;;;;;;16.89;100.00;101034.63;5044883;28;20043;-66
2023/07/30 10:47:02;;;;;;;21.08;10.80;;;;;;;17.01;100.00;101029.13;5045008;28;20033;-65
2023/07/30 10:49:27;;;;;;;21.13;11.60;;;;;;;17.09;100.00;101038.56;5051022;28;20095;-65
2023/07/30 10:51:57;;;;;;;19.73;11.20;;;;;;;17.23;100.00;101044.66;5049463;28;20030;-65
2023/07/30 10:54:23;;;;;;;19.77;11.13;;;;;;;17.46;100.00;101038.63;5044777;28;20033;-64
2023/07/30 10:56:48;;;;;;;22.73;11.35;;;;;;;17.61;100.00;101040.72;5035116;28;20048;-64
2023/07/30 10:59:15;;;;;;;21.48;11.88;;;;;;;17.90;100.00;101036.03;5029408;28;20326;-64